Time;durP1;ratioP1;P1;durP2;ratioP2;P2;SDS_P1;SDS_P2;PMS_P1;PMS_P2;Temp;Humidity;BMP_temperature;BMP_pressure;BME280_temperature;BME280_humidity;BME280_pressure;Samples;Min_cycle;Max_cycle;Signal;HPM_P1;HPM_P2
2023/05/08 00:00:10;;;;;;;80.87;30.97;;;;;;;;;;6290313;28;20215;-59
2023/05/08 00:03:11;;;;;;;57.87;26.47;;;;;;;;;;6305440;28;20190;-59
2023/05/08 00:06:12;;;;;;;55.53;24.70;;;;;;;;;;6308988;28;20193;-59
2023/05/08 00:09:13;;;;;;;43.53;22.90;;;;;;;;;;6297599;28;20297;-58
2023/05/08 00:12:14;;;;;;;65.53;28.50;;;;;;;;;;6282894;28;20193;-59
2023/05/08 00:15:15;;;;;;;44.37;22.10;;;;;;;;;;6310382;28;20191;-59
2023/05/08 00:18:16;;;;;;;54.57;24.40;;;;;;;;;;6304556;28;20287;-59
2023/05/08 00:21:17;;;;;;;43.57;22.50;;;;;;;;;;6297360;28;20212;-59
2023/05/08 00:24:18;;;;;;;45.47;22.80;;;;;;;;;;6314794;28;20192;-58
2023/05/08 00:27:19;;;;;;;41.07;21.33;;;;;;;;;;6300897;28;20188;-59
2023/05/08 00:30:21;;;;;;;45.33;21.13;;;;;;;;;;6319210;28;20188;-58
2023/05/08 00:33:22;;;;;;;42.53;21.37;;;;;;;;;;6315381;28;20207;-60
2023/05/08 00:36:23;;;;;;;50.67;23.03;;;;;;;;;;6282118;28;20282;-60
2023/05/08 00:39:24;;;;;;;52.33;23.77;;;;;;;;;;6273789;28;20281;-60
2023/05/08 00:42:25;;;;;;;29.20;18.73;;;;;;;;;;6276812;28;20276;-60
2023/05/08 00:45:30;;;;;;;42.83;20.47;;;;;;;;;;6311886;28;20223;-60
2023/05/08 00:48:33;;;;;;;39.10;17.97;;;;;;;;;;6298964;28;20213;-60
2023/05/08 00:51:34;;;;;;;61.37;25.40;;;;;;;;;;6296171;28;20180;-60
2023/05/08 00:54:36;;;;;;;42.70;21.63;;;;;;;;;;6294574;28;20207;-60
2023/05/08 00:57:38;;;;;;;36.80;19.47;;;;;;;;;;6303496;28;20231;-60
2023/05/08 01:00:40;;;;;;;49.77;21.20;;;;;;;;;;6294331;28;20191;-60
2023/05/08 01:03:42;;;;;;;57.07;21.70;;;;;;;;;;6300664;28;20268;-60
2023/05/08 01:06:43;;;;;;;59.20;25.07;;;;;;;;;;6301554;28;20181;-60
2023/05/08 01:09:44;;;;;;;39.37;21.07;;;;;;;;;;6287949;28;20220;-60
2023/05/08 01:12:56;;;;;;;65.00;25.50;;;;;;;;;;6297076;28;20213;-59
2023/05/08 01:16:05;;;;;;;63.83;24.20;;;;;;;;;;6291808;28;20178;-59
2023/05/08 01:19:16;;;;;;;33.40;19.03;;;;;;;;;;6313952;28;20193;-58
2023/05/08 01:22:17;;;;;;;53.50;22.37;;;;;;;;;;6301919;28;20200;-58
2023/05/08 01:25:37;;;;;;;54.17;22.60;;;;;;;;;;6302627;28;20196;-59
2023/05/08 01:29:11;;;;;;;40.37;22.13;;;;;;;;;;6295467;28;20214;-58
2023/05/08 01:32:15;;;;;;;57.93;23.10;;;;;;;;;;6273701;28;20193;-59
2023/05/08 01:35:42;;;;;;;51.50;22.93;;;;;;;;;;6313804;28;20208;-60
2023/05/08 01:38:47;;;;;;;63.63;25.73;;;;;;;;;;6291442;28;20211;-60
2023/05/08 01:42:07;;;;;;;39.23;20.00;;;;;;;;;;6292998;28;20213;-60
2023/05/08 01:45:12;;;;;;;47.93;20.90;;;;;;;;;;6295424;28;20256;-59
2023/05/08 01:48:17;;;;;;;66.03;27.40;;;;;;;;;;6307656;28;20220;-59
2023/05/08 01:51:21;;;;;;;53.70;23.37;;;;;;;;;;6308725;28;20186;-59
2023/05/08 01:54:24;;;;;;;85.17;31.73;;;;;;;;;;6328673;28;20207;-59
2023/05/08 01:57:28;;;;;;;45.50;22.67;;;;;;;;;;6306295;28;20192;-59
2023/05/08 02:00:30;;;;;;;47.70;22.30;;;;;;;;;;6322461;28;20223;-58
2023/05/08 02:03:32;;;;;;;59.23;27.20;;;;;;;;;;6284215;28;20200;-59
2023/05/08 02:06:34;;;;;;;79.43;30.47;;;;;;;;;;6295388;28;20213;-59
2023/05/08 02:09:36;;;;;;;87.03;32.17;;;;;;;;;;6299858;28;20487;-59
2023/05/08 02:12:38;;;;;;;45.77;23.53;;;;;;;;;;6292169;28;20192;-59
2023/05/08 02:15:40;;;;;;;50.00;23.07;;;;;;;;;;6291860;28;20182;-59
2023/05/08 02:18:43;;;;;;;65.27;26.93;;;;;;;;;;6287361;28;20236;-59
2023/05/08 02:21:45;;;;;;;83.43;29.10;;;;;;;;;;6294832;28;20285;-59
2023/05/08 02:24:46;;;;;;;56.53;26.50;;;;;;;;;;6276464;28;20194;-58
2023/05/08 02:27:48;;;;;;;47.87;22.53;;;;;;;;;;6291846;28;20235;-59
2023/05/08 02:30:51;;;;;;;77.10;28.53;;;;;;;;;;6336335;28;20224;-60
2023/05/08 02:33:52;;;;;;;87.23;30.07;;;;;;;;;;6334431;28;20666;-60
2023/05/08 02:36:54;;;;;;;70.40;27.80;;;;;;;;;;6304528;28;20242;-60
2023/05/08 02:39:56;;;;;;;105.73;34.47;;;;;;;;;;6322055;28;20192;-60
2023/05/08 02:42:57;;;;;;;91.07;31.37;;;;;;;;;;6301175;28;20260;-59
2023/05/08 02:46:14;;;;;;;69.53;31.03;;;;;;;;;;6297494;28;20268;-59
2023/05/08 02:49:15;;;;;;;66.40;27.77;;;;;;;;;;6314885;28;20231;-60
2023/05/08 02:52:18;;;;;;;57.80;28.67;;;;;;;;;;6302284;28;20192;-60
2023/05/08 02:55:38;;;;;;;45.20;25.87;;;;;;;;;;6301064;28;20224;-60
2023/05/08 02:58:45;;;;;;;61.03;28.00;;;;;;;;;;6316993;28;20282;-59
2023/05/08 03:01:56;;;;;;;78.50;29.60;;;;;;;;;;6321952;28;20189;-60
2023/05/08 03:04:59;;;;;;;96.77;34.80;;;;;;;;;;6327116;28;20281;-60
2023/05/08 03:08:03;;;;;;;67.53;29.47;;;;;;;;;;6316677;28;20213;-60
2023/05/08 03:11:07;;;;;;;64.40;28.07;;;;;;;;;;6307113;28;20304;-60
2023/05/08 03:14:13;;;;;;;85.87;32.50;;;;;;;;;;6296557;28;20280;-60
2023/05/08 03:17:16;;;;;;;103.70;36.97;;;;;;;;;;6286041;28;20190;-59
2023/05/08 03:20:17;;;;;;;97.30;34.73;;;;;;;;;;6315054;28;20185;-59
2023/05/08 03:23:20;;;;;;;98.80;35.10;;;;;;;;;;6306623;28;20197;-59
2023/05/08 03:26:21;;;;;;;86.97;32.53;;;;;;;;;;6323935;28;20193;-60
2023/05/08 03:29:23;;;;;;;50.00;24.87;;;;;;;;;;6297691;28;20204;-59
2023/05/08 03:32:25;;;;;;;58.00;26.67;;;;;;;;;;6314270;28;20242;-59
2023/05/08 03:35:27;;;;;;;52.57;25.27;;;;;;;;;;6310287;28;20190;-59
2023/05/08 03:38:28;;;;;;;93.07;34.17;;;;;;;;;;6300549;28;20241;-59
2023/05/08 03:41:30;;;;;;;52.53;27.70;;;;;;;;;;6288571;28;20275;-59
2023/05/08 03:44:31;;;;;;;67.97;28.90;;;;;;;;;;6297177;28;20201;-59
2023/05/08 03:47:35;;;;;;;82.37;32.70;;;;;;;;;;6306144;28;20189;-59
2023/05/08 03:50:36;;;;;;;52.40;27.00;;;;;;;;;;6300117;28;20272;-59
2023/05/08 03:53:37;;;;;;;87.67;33.60;;;;;;;;;;6308224;28;20186;-59
2023/05/08 03:56:38;;;;;;;66.30;28.37;;;;;;;;;;6307240;28;20187;-58
2023/05/08 03:59:56;;;;;;;64.43;28.07;;;;;;;;;;6282543;28;20208;-62
2023/05/08 04:03:04;;;;;;;63.83;27.77;;;;;;;;;;6322297;28;20192;-60
2023/05/08 04:06:08;;;;;;;94.97;34.77;;;;;;;;;;6301038;28;20202;-61
2023/05/08 04:09:28;;;;;;;64.77;30.87;;;;;;;;;;6309675;28;20216;-61
2023/05/08 04:12:47;;;;;;;81.33;30.10;;;;;;;;;;6323139;28;20192;-61
2023/05/08 04:15:54;;;;;;;71.20;28.17;;;;;;;;;;6292445;28;20190;-60
2023/05/08 04:19:01;;;;;;;73.60;29.07;;;;;;;;;;6307824;28;20196;-59
2023/05/08 04:22:06;;;;;;;63.07;29.90;;;;;;;;;;6299217;28;20265;-61
2023/05/08 04:25:08;;;;;;;80.23;32.73;;;;;;;;;;6296478;28;20201;-61
2023/05/08 04:28:11;;;;;;;74.00;30.30;;;;;;;;;;6308781;28;20249;-61
2023/05/08 04:31:13;;;;;;;64.23;29.50;;;;;;;;;;6299042;28;20196;-61
2023/05/08 04:34:14;;;;;;;86.07;30.10;;;;;;;;;;6309459;28;20185;-61
2023/05/08 04:37:25;;;;;;;95.13;35.67;;;;;;;;;;6295294;28;20327;-61
2023/05/08 04:40:26;;;;;;;87.43;30.10;;;;;;;;;;6305893;28;20205;-61
2023/05/08 04:43:27;;;;;;;117.77;34.97;;;;;;;;;;6304080;28;20196;-61
2023/05/08 04:46:28;;;;;;;92.20;33.93;;;;;;;;;;6307909;28;20188;-61
2023/05/08 04:49:30;;;;;;;81.07;28.57;;;;;;;;;;6295372;28;20216;-61
2023/05/08 04:52:31;;;;;;;49.50;25.63;;;;;;;;;;6290262;28;20189;-61
2023/05/08 04:55:32;;;;;;;94.83;32.87;;;;;;;;;;6319262;28;20714;-61
2023/05/08 04:58:33;;;;;;;103.43;35.63;;;;;;;;;;6298988;28;20291;-62
2023/05/08 05:01:35;;;;;;;102.37;32.77;;;;;;;;;;6286965;28;20192;-62
2023/05/08 05:04:36;;;;;;;98.90;33.20;;;;;;;;;;6298074;28;20193;-62
2023/05/08 05:07:37;;;;;;;57.00;25.53;;;;;;;;;;6294661;28;20204;-61
2023/05/08 05:10:38;;;;;;;73.13;29.03;;;;;;;;;;6306862;28;20177;-62
2023/05/08 05:13:39;;;;;;;94.13;30.17;;;;;;;;;;6314355;28;20274;-60
2023/05/08 05:16:40;;;;;;;75.40;28.23;;;;;;;;;;6292057;28;20224;-61
2023/05/08 05:19:41;;;;;;;93.87;33.43;;;;;;;;;;6309286;28;20218;-61
2023/05/08 05:22:42;;;;;;;86.87;32.50;;;;;;;;;;6285760;28;20197;-60
2023/05/08 05:25:44;;;;;;;111.53;35.50;;;;;;;;;;6297336;28;20208;-61
2023/05/08 05:28:45;;;;;;;67.10;29.30;;;;;;;;;;6273473;28;20220;-61
2023/05/08 05:31:46;;;;;;;86.27;30.73;;;;;;;;;;6273298;28;20196;-61
2023/05/08 05:34:47;;;;;;;113.53;35.87;;;;;;;;;;6272497;28;20193;-61
2023/05/08 05:37:48;;;;;;;77.93;31.47;;;;;;;;;;6278747;28;20240;-60
2023/05/08 05:40:49;;;;;;;101.60;32.97;;;;;;;;;;6295277;28;20201;-60
2023/05/08 05:43:50;;;;;;;82.87;32.03;;;;;;;;;;6297127;28;20213;-60
2023/05/08 05:46:51;;;;;;;138.53;40.57;;;;;;;;;;6293616;28;20199;-62
2023/05/08 05:49:52;;;;;;;106.27;36.53;;;;;;;;;;6294796;28;20204;-62
2023/05/08 05:52:53;;;;;;;105.10;37.10;;;;;;;;;;6288169;28;20189;-61
2023/05/08 05:55:54;;;;;;;84.50;34.83;;;;;;;;;;6301653;28;20189;-61
2023/05/08 05:58:55;;;;;;;69.03;33.67;;;;;;;;;;6282224;28;20190;-62
2023/05/08 06:01:56;;;;;;;61.10;28.20;;;;;;;;;;6298392;28;20224;-61
2023/05/08 06:04:58;;;;;;;95.83;36.53;;;;;;;;;;6312531;28;20258;-61
2023/05/08 06:07:59;;;;;;;107.53;39.97;;;;;;;;;;6289743;28;20218;-61
2023/05/08 06:11:00;;;;;;;76.47;31.43;;;;;;;;;;6299692;28;20192;-61
2023/05/08 06:14:01;;;;;;;92.93;33.10;;;;;;;;;;6300308;28;20189;-59
2023/05/08 06:17:02;;;;;;;89.87;33.93;;;;;;;;;;6308950;28;20185;-59
2023/05/08 06:20:04;;;;;;;102.47;34.37;;;;;;;;;;6311432;28;20224;-59
2023/05/08 06:23:05;;;;;;;102.80;32.10;;;;;;;;;;6276598;28;20189;-59
2023/05/08 06:26:06;;;;;;;84.50;36.47;;;;;;;;;;6320796;28;20200;-59
2023/05/08 06:29:07;;;;;;;83.67;32.83;;;;;;;;;;6284618;28;20212;-59
2023/05/08 06:32:08;;;;;;;78.77;34.33;;;;;;;;;;6308168;28;20258;-59
2023/05/08 06:35:10;;;;;;;80.93;35.77;;;;;;;;;;6298902;28;20188;-59
2023/05/08 06:38:11;;;;;;;69.07;33.93;;;;;;;;;;6301446;28;20251;-59
2023/05/08 06:41:12;;;;;;;57.47;34.70;;;;;;;;;;6284938;28;20196;-59
2023/05/08 06:44:14;;;;;;;75.40;32.87;;;;;;;;;;6281444;28;20193;-60
2023/05/08 06:47:15;;;;;;;95.93;37.87;;;;;;;;;;6302655;28;20205;-61
2023/05/08 06:50:16;;;;;;;61.70;33.20;;;;;;;;;;6276553;28;20217;-61
2023/05/08 06:53:17;;;;;;;66.07;32.17;;;;;;;;;;6317483;28;20243;-60
2023/05/08 06:56:18;;;;;;;67.93;32.63;;;;;;;;;;6311713;28;20189;-60
2023/05/08 06:59:20;;;;;;;52.33;30.63;;;;;;;;;;6303418;28;20275;-61
2023/05/08 07:02:21;;;;;;;88.90;36.50;;;;;;;;;;6291574;28;20246;-60
2023/05/08 07:05:22;;;;;;;82.60;36.97;;;;;;;;;;6307164;28;20193;-60
2023/05/08 07:08:23;;;;;;;70.67;34.17;;;;;;;;;;6313992;28;20267;-60
2023/05/08 07:11:24;;;;;;;63.80;32.97;;;;;;;;;;6309806;28;20191;-61
2023/05/08 07:14:26;;;;;;;73.80;35.90;;;;;;;;;;6320753;28;20188;-60
2023/05/08 07:17:27;;;;;;;67.17;34.23;;;;;;;;;;6313698;28;20197;-60
2023/05/08 07:20:28;;;;;;;52.20;29.40;;;;;;;;;;6304703;28;20298;-60
2023/05/08 07:23:29;;;;;;;56.17;30.93;;;;;;;;;;6299304;28;20193;-61
2023/05/08 07:26:30;;;;;;;52.53;32.90;;;;;;;;;;6311768;28;20280;-60
2023/05/08 07:29:31;;;;;;;46.43;29.43;;;;;;;;;;6284339;28;20212;-60
2023/05/08 07:32:32;;;;;;;58.77;32.80;;;;;;;;;;6299135;28;20182;-60
2023/05/08 07:35:33;;;;;;;54.13;30.53;;;;;;;;;;6306292;28;20298;-60
2023/05/08 07:38:35;;;;;;;51.53;31.00;;;;;;;;;;6289286;28;20343;-60
2023/05/08 07:41:37;;;;;;;50.57;31.07;;;;;;;;;;6302766;28;20193;-60
2023/05/08 07:44:38;;;;;;;45.27;30.73;;;;;;;;;;6299839;28;20195;-60
2023/05/08 07:47:48;;;;;;;57.50;32.33;;;;;;;;;;6309299;28;20192;-59
2023/05/08 07:50:49;;;;;;;60.30;30.50;;;;;;;;;;6295068;28;20247;-61
2023/05/08 07:53:50;;;;;;;45.63;29.50;;;;;;;;;;6302219;28;20185;-60
2023/05/08 07:56:52;;;;;;;62.70;32.37;;;;;;;;;;6284505;28;20235;-60
2023/05/08 07:59:53;;;;;;;42.00;27.20;;;;;;;;;;6317674;28;20185;-61
2023/05/08 08:02:54;;;;;;;68.23;33.60;;;;;;;;;;6299993;28;20206;-59
2023/05/08 08:05:55;;;;;;;36.43;27.07;;;;;;;;;;6300222;28;20272;-59
2023/05/08 08:08:56;;;;;;;32.60;26.93;;;;;;;;;;6316616;28;20211;-59
2023/05/08 08:11:57;;;;;;;41.73;28.43;;;;;;;;;;6296683;28;20286;-60
2023/05/08 08:14:58;;;;;;;39.13;28.20;;;;;;;;;;6308613;28;20191;-60
2023/05/08 08:17:59;;;;;;;33.33;25.57;;;;;;;;;;6277946;28;20193;-59
2023/05/08 08:21:00;;;;;;;37.60;27.50;;;;;;;;;;6280017;28;20205;-59
2023/05/08 08:24:01;;;;;;;48.63;30.73;;;;;;;;;;6299166;28;20196;-59
2023/05/08 08:27:03;;;;;;;38.57;27.70;;;;;;;;;;6292458;28;20190;-60
2023/05/08 08:30:04;;;;;;;42.30;29.07;;;;;;;;;;6322743;28;20242;-59
2023/05/08 08:33:06;;;;;;;52.57;30.77;;;;;;;;;;6279478;28;20186;-60
2023/05/08 08:36:12;;;;;;;52.27;30.33;;;;;;;;;;6280853;28;20301;-59
2023/05/08 08:39:13;;;;;;;40.87;29.50;;;;;;;;;;6306946;28;20190;-60
2023/05/08 08:42:14;;;;;;;40.57;29.60;;;;;;;;;;6279679;28;20292;-60
2023/05/08 08:45:15;;;;;;;46.17;29.97;;;;;;;;;;6303107;28;20287;-60
2023/05/08 08:48:17;;;;;;;41.10;29.17;;;;;;;;;;6308256;28;20212;-60
2023/05/08 08:51:23;;;;;;;37.83;28.67;;;;;;;;;;6307988;28;20197;-60
2023/05/08 08:54:27;;;;;;;46.20;30.90;;;;;;;;;;6319323;28;20194;-61
2023/05/08 08:57:32;;;;;;;35.00;26.47;;;;;;;;;;6296080;28;20263;-60
2023/05/08 09:00:36;;;;;;;34.20;25.07;;;;;;;;;;6302491;28;20201;-60
2023/05/08 09:03:37;;;;;;;38.97;27.73;;;;;;;;;;6304028;28;20224;-60
2023/05/08 09:06:40;;;;;;;41.30;30.00;;;;;;;;;;6289459;28;20209;-59
2023/05/08 09:09:43;;;;;;;39.97;27.10;;;;;;;;;;6285113;28;20206;-60
2023/05/08 09:12:44;;;;;;;45.40;30.53;;;;;;;;;;6308785;28;20185;-60
2023/05/08 09:15:45;;;;;;;38.77;27.47;;;;;;;;;;6288456;28;20192;-60
2023/05/08 09:18:47;;;;;;;43.13;31.07;;;;;;;;;;6310441;28;20193;-60
2023/05/08 09:21:48;;;;;;;40.50;28.97;;;;;;;;;;6285761;28;20186;-61
2023/05/08 09:24:56;;;;;;;36.37;26.47;;;;;;;;;;6316207;28;20185;-59
2023/05/08 09:28:14;;;;;;;35.37;26.20;;;;;;;;;;6307632;28;20194;-60
2023/05/08 09:31:15;;;;;;;48.50;30.70;;;;;;;;;;6310858;28;20273;-60
2023/05/08 09:34:25;;;;;;;43.47;30.23;;;;;;;;;;6296706;28;20195;-60
2023/05/08 09:37:27;;;;;;;38.60;28.80;;;;;;;;;;6297442;28;20241;-61
2023/05/08 09:40:28;;;;;;;34.63;27.53;;;;;;;;;;6272752;28;20371;-60
2023/05/08 09:43:30;;;;;;;32.27;24.63;;;;;;;;;;6296496;28;20210;-60
2023/05/08 09:46:32;;;;;;;32.53;25.03;;;;;;;;;;6303991;28;20195;-61
2023/05/08 09:49:34;;;;;;;35.40;26.53;;;;;;;;;;6307431;28;20220;-60
2023/05/08 09:52:36;;;;;;;36.27;27.73;;;;;;;;;;6301530;28;20194;-59
2023/05/08 09:55:47;;;;;;;32.50;25.60;;;;;;;;;;6315844;28;20243;-60
2023/05/08 09:58:48;;;;;;;35.60;27.23;;;;;;;;;;6310906;28;20194;-60
2023/05/08 10:01:49;;;;;;;36.97;28.97;;;;;;;;;;6293166;28;20279;-59
2023/05/08 10:04:50;;;;;;;34.83;27.57;;;;;;;;;;6290240;28;20197;-60
2023/05/08 10:07:51;;;;;;;43.47;28.13;;;;;;;;;;6311532;28;20202;-60
2023/05/08 10:10:53;;;;;;;36.37;27.27;;;;;;;;;;6320226;28;20195;-60
2023/05/08 10:13:54;;;;;;;34.77;26.13;;;;;;;;;;6302762;28;20185;-60
2023/05/08 10:16:55;;;;;;;35.33;26.23;;;;;;;;;;6301720;28;20191;-60
2023/05/08 10:20:00;;;;;;;35.87;25.83;;;;;;;;;;6289424;28;20354;-60
2023/05/08 10:23:02;;;;;;;31.53;24.70;;;;;;;;;;6304942;28;20304;-60
2023/05/08 10:26:08;;;;;;;43.77;27.87;;;;;;;;;;6320590;28;20209;-59
2023/05/08 10:29:13;;;;;;;30.27;23.50;;;;;;;;;;6296309;28;20216;-60
2023/05/08 10:32:16;;;;;;;43.23;28.53;;;;;;;;;;6296715;28;20197;-60
2023/05/08 10:35:17;;;;;;;30.33;23.13;;;;;;;;;;6310385;28;20189;-60
2023/05/08 10:38:18;;;;;;;45.57;30.27;;;;;;;;;;6292451;28;20237;-60
2023/05/08 10:41:22;;;;;;;41.80;29.30;;;;;;;;;;6312515;28;20202;-60
2023/05/08 10:44:23;;;;;;;40.40;27.73;;;;;;;;;;6296400;28;20226;-60
2023/05/08 10:47:28;;;;;;;46.07;31.83;;;;;;;;;;6278697;28;20280;-60
2023/05/08 10:50:48;;;;;;;39.47;28.80;;;;;;;;;;6307039;28;20209;-60
2023/05/08 10:54:00;;;;;;;42.27;29.27;;;;;;;;;;6310464;28;20194;-60
2023/05/08 10:57:11;;;;;;;41.47;29.13;;;;;;;;;;6322295;28;20190;-60
2023/05/08 11:00:12;;;;;;;48.03;30.70;;;;;;;;;;6301214;28;20190;-60
2023/05/08 11:03:16;;;;;;;46.43;31.83;;;;;;;;;;6296150;28;20288;-61
2023/05/08 11:06:18;;;;;;;46.80;30.90;;;;;;;;;;6317019;28;20224;-61
2023/05/08 11:09:26;;;;;;;41.07;29.37;;;;;;;;;;6279782;28;20209;-61
2023/05/08 11:12:30;;;;;;;34.30;25.93;;;;;;;;;;6296768;28;20186;-61
2023/05/08 11:15:39;;;;;;;33.07;27.33;;;;;;;;;;6321063;28;20192;-61
2023/05/08 11:19:12;;;;;;;28.90;24.97;;;;;;;;;;6300737;28;20243;-61
2023/05/08 11:22:15;;;;;;;36.70;28.10;;;;;;;;;;6290504;28;20218;-60
2023/05/08 11:25:18;;;;;;;32.67;25.47;;;;;;;;;;6299999;28;20193;-60
2023/05/08 11:28:19;;;;;;;33.47;24.60;;;;;;;;;;6290582;28;20209;-60
2023/05/08 11:31:20;;;;;;;31.43;25.50;;;;;;;;;;6314528;28;20256;-60
2023/05/08 11:34:40;;;;;;;30.67;24.63;;;;;;;;;;6296159;28;20201;-59
2023/05/08 11:38:01;;;;;;;27.47;21.77;;;;;;;;;;6309541;28;20222;-60
2023/05/08 11:41:06;;;;;;;26.60;23.17;;;;;;;;;;6321869;28;20190;-61
2023/05/08 11:44:19;;;;;;;28.87;24.13;;;;;;;;;;6313511;28;20198;-61
2023/05/08 11:47:20;;;;;;;33.20;23.87;;;;;;;;;;6311272;28;20199;-61
2023/05/08 11:50:21;;;;;;;22.97;20.30;;;;;;;;;;6283068;28;20245;-61
2023/05/08 11:53:22;;;;;;;26.00;21.67;;;;;;;;;;6299382;28;20262;-61
2023/05/08 11:56:25;;;;;;;28.63;24.93;;;;;;;;;;6284132;28;20200;-61
2023/05/08 11:59:26;;;;;;;27.67;24.07;;;;;;;;;;6299849;28;20277;-61
2023/05/08 12:02:40;;;;;;;27.30;24.03;;;;;;;;;;6283284;28;20334;-61
2023/05/08 12:05:41;;;;;;;24.47;21.70;;;;;;;;;;6310802;28;20276;-61
2023/05/08 12:08:43;;;;;;;27.93;22.87;;;;;;;;;;6319244;28;20300;-62
2023/05/08 12:11:44;;;;;;;28.40;24.47;;;;;;;;;;6307567;28;20185;-62
2023/05/08 12:14:49;;;;;;;30.47;25.27;;;;;;;;;;6292457;28;20190;-61
2023/05/08 12:18:01;;;;;;;29.20;23.07;;;;;;;;;;6302971;28;20178;-62
2023/05/08 12:21:02;;;;;;;27.27;23.23;;;;;;;;;;6315724;28;20197;-61
2023/05/08 12:24:09;;;;;;;28.63;24.40;;;;;;;;;;6303418;28;20195;-62
2023/05/08 12:27:12;;;;;;;32.87;26.10;;;;;;;;;;6306481;28;20200;-62
2023/05/08 12:30:13;;;;;;;29.07;22.20;;;;;;;;;;6309495;28;20213;-62
2023/05/08 12:33:15;;;;;;;24.07;21.33;;;;;;;;;;6311201;28;20268;-62
2023/05/08 12:36:16;;;;;;;29.87;24.07;;;;;;;;;;6308586;28;20236;-60
2023/05/08 12:39:18;;;;;;;24.43;21.50;;;;;;;;;;6296886;28;20192;-60
2023/05/08 12:42:19;;;;;;;24.13;21.20;;;;;;;;;;6309602;28;20289;-60
2023/05/08 12:45:32;;;;;;;25.30;19.57;;;;;;;;;;6307251;28;20197;-61
2023/05/08 12:48:33;;;;;;;21.70;19.23;;;;;;;;;;6280781;28;20233;-60
2023/05/08 12:51:34;;;;;;;19.60;17.50;;;;;;;;;;6305841;28;20192;-61
2023/05/08 12:54:40;;;;;;;22.27;19.30;;;;;;;;;;6314899;28;20192;-60
2023/05/08 12:57:41;;;;;;;21.40;19.13;;;;;;;;;;6331513;28;20195;-61
2023/05/08 13:00:42;;;;;;;18.37;16.33;;;;;;;;;;6285722;28;20198;-61
2023/05/08 13:03:43;;;;;;;20.40;18.13;;;;;;;;;;6311545;28;20181;-61
2023/05/08 13:06:52;;;;;;;18.50;16.50;;;;;;;;;;6319290;28;20223;-61
2023/05/08 13:09:58;;;;;;;20.77;18.53;;;;;;;;;;6294112;28;20205;-61
2023/05/08 13:12:59;;;;;;;16.47;14.77;;;;;;;;;;6315679;28;20192;-60
2023/05/08 13:16:04;;;;;;;21.43;18.40;;;;;;;;;;6281366;28;20212;-60
2023/05/08 13:19:05;;;;;;;19.40;17.30;;;;;;;;;;6304524;28;20193;-61
2023/05/08 13:22:06;;;;;;;22.90;18.17;;;;;;;;;;6294274;28;20249;-60
2023/05/08 13:25:07;;;;;;;19.50;16.90;;;;;;;;;;6283034;28;20192;-60
2023/05/08 13:28:09;;;;;;;20.40;17.63;;;;;;;;;;6279606;28;20201;-60
2023/05/08 13:31:10;;;;;;;21.10;18.47;;;;;;;;;;6314494;28;20181;-61
2023/05/08 13:34:12;;;;;;;19.77;17.63;;;;;;;;;;6294757;28;20193;-61
2023/05/08 13:37:13;;;;;;;20.23;17.70;;;;;;;;;;6302867;28;20263;-61
2023/05/08 13:40:14;;;;;;;18.07;16.27;;;;;;;;;;6308707;28;20189;-61
2023/05/08 13:43:15;;;;;;;22.83;19.00;;;;;;;;;;6313672;28;20259;-61
2023/05/08 13:46:16;;;;;;;22.47;17.03;;;;;;;;;;6306169;28;20204;-61
2023/05/08 13:49:18;;;;;;;21.80;18.30;;;;;;;;;;6278341;28;20251;-61
2023/05/08 13:52:19;;;;;;;21.50;19.20;;;;;;;;;;6295036;28;20196;-61
2023/05/08 13:55:21;;;;;;;19.33;16.80;;;;;;;;;;6304068;28;20216;-61
2023/05/08 13:58:22;;;;;;;19.90;17.90;;;;;;;;;;6290636;28;20194;-61
2023/05/08 14:01:23;;;;;;;22.80;19.07;;;;;;;;;;6313449;28;20193;-61
2023/05/08 14:04:24;;;;;;;21.70;18.60;;;;;;;;;;6290507;28;20197;-61
2023/05/08 14:07:26;;;;;;;24.67;18.27;;;;;;;;;;6291559;28;20189;-61
2023/05/08 14:10:27;;;;;;;21.70;18.37;;;;;;;;;;6305563;28;20304;-62
2023/05/08 14:13:28;;;;;;;21.83;18.53;;;;;;;;;;6285622;28;20194;-61
2023/05/08 14:16:29;;;;;;;20.13;18.03;;;;;;;;;;6284930;28;20189;-61
2023/05/08 14:19:31;;;;;;;18.63;16.60;;;;;;;;;;6300828;28;20197;-63
2023/05/08 14:22:32;;;;;;;24.17;18.73;;;;;;;;;;6280209;28;20203;-62
2023/05/08 14:25:33;;;;;;;17.87;14.53;;;;;;;;;;6279440;28;20284;-61
2023/05/08 14:28:34;;;;;;;17.73;15.70;;;;;;;;;;6296583;28;20217;-61
2023/05/08 14:31:35;;;;;;;17.17;15.37;;;;;;;;;;6294326;28;20250;-61
2023/05/08 14:34:36;;;;;;;19.93;16.27;;;;;;;;;;6280817;28;20193;-61
2023/05/08 14:37:37;;;;;;;22.67;16.97;;;;;;;;;;6296928;28;20273;-60
2023/05/08 14:40:38;;;;;;;22.40;17.77;;;;;;;;;;6296954;28;20196;-61
2023/05/08 14:43:41;;;;;;;21.57;17.83;;;;;;;;;;6290194;28;20189;-61
2023/05/08 14:46:42;;;;;;;18.17;16.27;;;;;;;;;;6309320;28;20198;-61
2023/05/08 14:49:43;;;;;;;19.77;16.23;;;;;;;;;;6309698;28;20218;-61
2023/05/08 14:52:44;;;;;;;19.30;17.17;;;;;;;;;;6315221;28;20184;-61
2023/05/08 14:55:45;;;;;;;20.17;17.97;;;;;;;;;;6321220;28;20189;-60
2023/05/08 14:58:46;;;;;;;19.97;17.73;;;;;;;;;;6319331;28;20195;-61
2023/05/08 15:01:47;;;;;;;17.07;15.37;;;;;;;;;;6287181;28;20201;-61
2023/05/08 15:04:48;;;;;;;20.37;15.67;;;;;;;;;;6293395;28;20250;-61
2023/05/08 15:07:49;;;;;;;19.73;17.63;;;;;;;;;;6287440;28;20226;-61
2023/05/08 15:10:50;;;;;;;19.03;16.93;;;;;;;;;;6286082;28;20225;-61
2023/05/08 15:13:52;;;;;;;18.07;16.17;;;;;;;;;;6282129;28;20189;-61
2023/05/08 15:16:52;;;;;;;18.13;16.20;;;;;;;;;;6298342;28;20192;-60
2023/05/08 15:19:54;;;;;;;18.10;16.23;;;;;;;;;;6286972;28;20216;-61
2023/05/08 15:22:55;;;;;;;20.63;17.53;;;;;;;;;;6307366;28;20283;-61
2023/05/08 15:25:56;;;;;;;18.40;16.37;;;;;;;;;;6299063;28;20197;-61
2023/05/08 15:28:57;;;;;;;18.13;16.23;;;;;;;;;;6273290;28;20312;-61
2023/05/08 15:31:58;;;;;;;17.33;15.50;;;;;;;;;;6305049;28;20194;-61
2023/05/08 15:34:59;;;;;;;21.27;17.37;;;;;;;;;;6298514;28;20216;-60
2023/05/08 15:38:04;;;;;;;20.27;17.30;;;;;;;;;;6319722;28;20240;-60
2023/05/08 15:41:05;;;;;;;18.93;16.47;;;;;;;;;;6310319;28;20247;-61
2023/05/08 15:44:07;;;;;;;18.37;16.50;;;;;;;;;;6309323;28;20212;-60
2023/05/08 15:47:08;;;;;;;18.47;16.23;;;;;;;;;;6299466;28;20232;-60
2023/05/08 15:50:09;;;;;;;20.77;17.00;;;;;;;;;;6291302;28;20358;-60
2023/05/08 15:53:10;;;;;;;19.77;17.07;;;;;;;;;;6307284;28;20181;-60
2023/05/08 15:56:11;;;;;;;19.77;16.30;;;;;;;;;;6317993;28;20278;-59
2023/05/08 15:59:12;;;;;;;19.67;16.63;;;;;;;;;;6300179;28;20201;-60
2023/05/08 16:02:13;;;;;;;19.03;15.67;;;;;;;;;;6275029;28;20323;-61
2023/05/08 16:05:14;;;;;;;21.77;16.37;;;;;;;;;;6300735;28;20314;-61
2023/05/08 16:08:15;;;;;;;22.47;17.07;;;;;;;;;;6283009;28;20201;-61
2023/05/08 16:11:16;;;;;;;19.77;17.47;;;;;;;;;;6307062;28;20246;-61
2023/05/08 16:14:18;;;;;;;20.63;16.83;;;;;;;;;;6298036;28;20186;-61
2023/05/08 16:17:19;;;;;;;17.47;15.53;;;;;;;;;;6291513;28;20225;-61
2023/05/08 16:20:20;;;;;;;24.20;18.30;;;;;;;;;;6291283;28;20207;-62
2023/05/08 16:23:21;;;;;;;20.73;17.20;;;;;;;;;;6280961;28;20213;-60
2023/05/08 16:26:23;;;;;;;17.83;15.93;;;;;;;;;;6290440;28;20193;-59
2023/05/08 16:29:24;;;;;;;21.40;18.17;;;;;;;;;;6280735;28;20311;-60
2023/05/08 16:32:25;;;;;;;24.80;18.80;;;;;;;;;;6284151;28;20277;-61
2023/05/08 16:35:28;;;;;;;25.97;19.93;;;;;;;;;;6281283;28;20269;-61
2023/05/08 16:38:29;;;;;;;18.83;16.97;;;;;;;;;;6297187;28;20244;-60
2023/05/08 16:41:30;;;;;;;21.90;18.60;;;;;;;;;;6283602;28;20185;-61
2023/05/08 16:44:31;;;;;;;20.47;17.53;;;;;;;;;;6279894;28;20232;-61
2023/05/08 16:47:33;;;;;;;19.20;16.73;;;;;;;;;;6293722;28;20256;-60
2023/05/08 16:50:34;;;;;;;21.30;17.57;;;;;;;;;;6280091;28;20221;-60
2023/05/08 16:53:36;;;;;;;18.93;15.60;;;;;;;;;;6285886;28;20196;-62
2023/05/08 16:56:37;;;;;;;21.33;18.27;;;;;;;;;;6312611;28;20194;-61
2023/05/08 16:59:38;;;;;;;22.57;18.10;;;;;;;;;;6298974;28;20215;-61
2023/05/08 17:02:39;;;;;;;19.53;17.30;;;;;;;;;;6300509;28;20192;-62
2023/05/08 17:05:40;;;;;;;19.10;16.00;;;;;;;;;;6286495;28;20200;-58
2023/05/08 17:08:41;;;;;;;24.13;17.90;;;;;;;;;;6293435;28;20217;-59
2023/05/08 17:11:42;;;;;;;21.00;18.20;;;;;;;;;;6296599;28;20196;-58
2023/05/08 17:14:43;;;;;;;21.50;17.10;;;;;;;;;;6295661;28;20192;-59
2023/05/08 17:17:46;;;;;;;18.97;16.07;;;;;;;;;;6294727;28;20269;-58
2023/05/08 17:20:47;;;;;;;19.90;16.50;;;;;;;;;;6294404;28;20200;-59
2023/05/08 17:23:48;;;;;;;18.67;15.40;;;;;;;;;;6277986;28;20192;-58
2023/05/08 17:26:49;;;;;;;19.30;15.87;;;;;;;;;;6278643;28;20196;-59
2023/05/08 17:29:50;;;;;;;25.33;17.63;;;;;;;;;;6273776;28;20209;-59
2023/05/08 17:32:51;;;;;;;21.40;16.47;;;;;;;;;;6305764;28;20185;-61
2023/05/08 17:35:52;;;;;;;19.47;16.43;;;;;;;;;;6283251;28;20192;-61
2023/05/08 17:38:54;;;;;;;20.93;17.43;;;;;;;;;;6313999;28;20204;-59
2023/05/08 17:41:55;;;;;;;19.33;16.17;;;;;;;;;;6317516;28;20185;-60